Time;durP1;ratioP1;P1;durP2;ratioP2;P2;SDS_P1;SDS_P2;PMS_P1;PMS_P2;Temp;Humidity;BMP_temperature;BMP_pressure;BME280_temperature;BME280_humidity;BME280_pressure;Samples;Min_cycle;Max_cycle;Signal;HPM_P1;HPM_P2
2023/12/08 00:00:30;;;;;;;;;;;;;;;3.83;91.33;95214.56;5117301;28;976;-62
2023/12/08 00:02:56;;;;;;;;;;;;;;;3.88;91.81;95218.53;5116877;28;1099;-62
2023/12/08 00:05:22;;;;;;;;;;;;;;;4.00;90.27;95210.59;5116803;28;1910;-61
2023/12/08 00:07:47;;;;;;;;;;;;;;;3.92;91.14;95222.63;5117238;28;1020;-62
2023/12/08 00:10:13;;;;;;;;;;;;;;;3.85;93.00;95212.63;5117094;28;1054;-62
2023/12/08 00:12:39;;;;;;;;;;;;;;;3.80;94.71;95213.00;5117144;28;1040;-62
2023/12/08 00:15:06;;;;;;;;;;;;;;;3.75;95.36;95209.84;5116896;28;1020;-62
2023/12/08 00:17:32;;;;;;;;;;;;;;;3.77;96.31;95209.75;5116861;28;968;-62
2023/12/08 00:19:58;;;;;;;;;;;;;;;3.87;95.38;95202.75;5116601;28;1016;-62
2023/12/08 00:22:24;;;;;;;;;;;;;;;4.02;93.49;95206.91;5116818;28;1078;-62
2023/12/08 00:24:50;;;;;;;;;;;;;;;4.07;92.74;95209.16;5116564;28;1910;-62
2023/12/08 00:27:16;;;;;;;;;;;;;;;4.03;91.24;95202.44;5116595;28;1050;-61
2023/12/08 00:29:42;;;;;;;;;;;;;;;3.93;92.93;95204.97;5116778;28;1019;-62
2023/12/08 00:32:08;;;;;;;;;;;;;;;4.00;92.57;95208.78;5116313;28;1025;-62
2023/12/08 00:34:34;;;;;;;;;;;;;;;4.07;92.03;95210.00;5116253;28;1088;-62
2023/12/08 00:37:00;;;;;;;;;;;;;;;4.01;92.60;95210.47;5116412;28;1088;-62
2023/12/08 00:39:26;;;;;;;;;;;;;;;4.05;91.06;95214.56;5116557;28;984;-61
2023/12/08 00:41:52;;;;;;;;;;;;;;;3.97;91.03;95208.22;5115229;28;969;-61
2023/12/08 00:44:18;;;;;;;;;;;;;;;3.94;90.29;95214.56;5115991;28;1984;-61
2023/12/08 00:46:44;;;;;;;;;;;;;;;3.89;88.96;95214.09;5116141;28;1043;-62
2023/12/08 00:49:09;;;;;;;;;;;;;;;3.88;89.62;95215.88;5116117;28;1048;-61
2023/12/08 00:51:35;;;;;;;;;;;;;;;3.97;88.44;95219.63;5116346;28;1027;-62
2023/12/08 00:54:01;;;;;;;;;;;;;;;4.08;87.67;95211.69;5115929;28;1259;-61
2023/12/08 00:56:28;;;;;;;;;;;;;;;3.96;87.96;95217.94;5116011;28;976;-61
2023/12/08 00:58:54;;;;;;;;;;;;;;;3.96;87.07;95212.63;5115732;28;1036;-62
2023/12/08 01:01:20;;;;;;;;;;;;;;;4.06;86.45;95216.28;5115891;28;964;-61
2023/12/08 01:03:46;;;;;;;;;;;;;;;3.95;88.35;95213.63;5115525;28;1987;-63
2023/12/08 01:06:12;;;;;;;;;;;;;;;3.81;88.71;95219.13;5116127;27;1063;-62
2023/12/08 01:08:37;;;;;;;;;;;;;;;3.91;88.23;95220.09;5115890;28;1066;-62
2023/12/08 01:11:05;;;;;;;;;;;;;;;4.00;87.23;95219.38;5114492;28;940;-61
2023/12/08 01:13:31;;;;;;;;;;;;;;;3.95;87.18;95216.25;5115895;28;1039;-62
2023/12/08 01:15:57;;;;;;;;;;;;;;;3.91;86.51;95214.81;5115695;28;1047;-62
2023/12/08 01:18:23;;;;;;;;;;;;;;;3.89;87.46;95211.44;5115418;28;1091;-61
2023/12/08 01:20:50;;;;;;;;;;;;;;;3.80;87.86;95212.16;5115742;28;992;-62
2023/12/08 01:23:16;;;;;;;;;;;;;;;3.76;87.83;95211.56;5115606;28;979;-61
2023/12/08 01:25:42;;;;;;;;;;;;;;;3.87;88.55;95222.16;5115497;28;2264;-62
2023/12/08 01:28:08;;;;;;;;;;;;;;;3.90;87.37;95221.88;5115350;28;1033;-62
2023/12/08 01:30:33;;;;;;;;;;;;;;;3.94;88.18;95224.31;5115211;28;1091;-62
2023/12/08 01:32:59;;;;;;;;;;;;;;;3.96;86.31;95217.09;5115217;28;980;-62
2023/12/08 01:35:25;;;;;;;;;;;;;;;3.88;87.17;95223.81;5115362;28;981;-62
2023/12/08 01:37:51;;;;;;;;;;;;;;;3.87;86.64;95235.38;5115158;28;1016;-62
2023/12/08 01:40:17;;;;;;;;;;;;;;;3.85;88.31;95225.84;5115209;28;1063;-61
2023/12/08 01:42:44;;;;;;;;;;;;;;;3.86;87.74;95220.44;5115043;28;1099;-62
2023/12/08 01:45:10;;;;;;;;;;;;;;;3.80;85.33;95222.75;5114925;28;1991;-61
2023/12/08 01:47:36;;;;;;;;;;;;;;;3.79;85.83;95219.22;5115245;28;1051;-62
2023/12/08 01:50:03;;;;;;;;;;;;;;;3.75;85.59;95209.84;5115413;28;1014;-61
2023/12/08 01:52:29;;;;;;;;;;;;;;;3.77;85.40;95212.38;5114749;28;1106;-61
2023/12/08 01:54:57;;;;;;;;;;;;;;;3.75;87.07;95219.59;5114653;28;1240;-62
2023/12/08 01:57:23;;;;;;;;;;;;;;;3.80;87.53;95225.38;5114732;28;972;-61
2023/12/08 01:59:49;;;;;;;;;;;;;;;3.84;84.48;95224.19;5114745;28;1040;-62
2023/12/08 02:02:15;;;;;;;;;;;;;;;3.78;85.78;95214.91;5114542;28;1028;-62
2023/12/08 02:04:43;;;;;;;;;;;;;;;3.87;84.14;95218.63;5114398;28;1914;-62
2023/12/08 02:07:09;;;;;;;;;;;;;;;3.89;84.90;95222.03;5114551;28;1135;-61
2023/12/08 02:09:35;;;;;;;;;;;;;;;3.76;85.41;95216.84;5113873;28;1000;-62
2023/12/08 02:12:01;;;;;;;;;;;;;;;3.85;84.45;95224.06;5114528;28;983;-62
2023/12/08 02:14:27;;;;;;;;;;;;;;;3.86;84.57;95222.25;5114565;28;960;-61
2023/12/08 02:16:54;;;;;;;;;;;;;;;3.92;83.63;95224.41;5114609;28;978;-62
2023/12/08 02:19:20;;;;;;;;;;;;;;;3.95;83.72;95218.91;5114509;28;1055;-62
2023/12/08 02:21:47;;;;;;;;;;;;;;;3.96;84.70;95215.28;5113057;28;1037;-62
2023/12/08 02:24:13;;;;;;;;;;;;;;;3.91;84.50;95230.69;5114299;28;1906;-62
2023/12/08 02:26:39;;;;;;;;;;;;;;;3.96;85.45;95217.94;5114317;28;988;-62
2023/12/08 02:29:09;;;;;;;;;;;;;;;3.88;84.41;95223.81;5114164;28;1074;-62
2023/12/08 02:31:40;;;;;;;;;;;;;;;3.89;84.14;95222.03;5114037;28;1157;-62
2023/12/08 02:34:07;;;;;;;;;;;;;;;3.89;85.17;95227.31;5114329;27;980;-61
2023/12/08 02:36:35;;;;;;;;;;;;;;;4.03;83.96;95223.59;5114151;28;1003;-62
2023/12/08 02:39:01;;;;;;;;;;;;;;;4.07;84.38;95231.16;5114163;28;1015;-61
2023/12/08 02:41:27;;;;;;;;;;;;;;;4.01;83.83;95234.28;5114238;28;980;-62
2023/12/08 02:43:53;;;;;;;;;;;;;;;3.92;85.12;95242.94;5113786;28;1913;-61
2023/12/08 02:46:19;;;;;;;;;;;;;;;3.98;84.46;95231.03;5114143;28;1059;-62
2023/12/08 02:48:45;;;;;;;;;;;;;;;3.94;85.18;95233.06;5113833;28;1024;-62
2023/12/08 02:51:10;;;;;;;;;;;;;;;3.88;85.47;95225.63;5113904;28;970;-62
2023/12/08 02:53:36;;;;;;;;;;;;;;;3.98;84.73;95223.94;5113947;28;1334;-62
2023/12/08 02:56:02;;;;;;;;;;;;;;;3.96;85.26;95231.16;5112826;28;1063;-62
2023/12/08 02:58:28;;;;;;;;;;;;;;;3.92;86.70;95227.91;5113547;28;1060;-62
2023/12/08 03:00:54;;;;;;;;;;;;;;;4.02;84.85;95225.41;5113902;28;1047;-62
2023/12/08 03:03:20;;;;;;;;;;;;;;;3.96;84.97;95217.94;5113712;28;1233;-63
2023/12/08 03:05:46;;;;;;;;;;;;;;;4.03;85.10;95226.25;5113556;28;1989;-62
2023/12/08 03:08:12;;;;;;;;;;;;;;;4.03;84.43;95231.53;5113631;28;1008;-61
2023/12/08 03:10:38;;;;;;;;;;;;;;;3.93;85.41;95236.69;5113856;28;1117;-62
2023/12/08 03:13:04;;;;;;;;;;;;;;;4.01;85.41;95236.94;5113830;28;1016;-62
2023/12/08 03:15:30;;;;;;;;;;;;;;;3.95;85.87;95237.44;5113500;28;1004;-61
2023/12/08 03:17:56;;;;;;;;;;;;;;;3.88;85.10;95237.03;5113486;28;1281;-62
2023/12/08 03:20:21;;;;;;;;;;;;;;;3.86;86.07;95243.41;5113396;28;980;-62
2023/12/08 03:22:47;;;;;;;;;;;;;;;3.97;85.69;95235.50;5116570;28;1131;-61
2023/12/08 03:25:13;;;;;;;;;;;;;;;3.97;84.62;95239.97;5117684;28;1906;-62
2023/12/08 03:27:39;;;;;;;;;;;;;;;3.97;84.43;95234.66;5117637;28;1984;-62
2023/12/08 03:30:05;;;;;;;;;;;;;;;3.77;84.71;95229.09;5118124;28;1051;-62
2023/12/08 03:32:31;;;;;;;;;;;;;;;3.81;83.78;95235.00;5117642;28;1039;-61
2023/12/08 03:34:58;;;;;;;;;;;;;;;3.81;83.96;95227.88;5117861;28;1023;-62
2023/12/08 03:37:24;;;;;;;;;;;;;;;3.73;83.55;95222.34;5117983;28;1127;-62
2023/12/08 03:39:50;;;;;;;;;;;;;;;3.76;83.43;95222.13;5117877;28;1101;-62
2023/12/08 03:42:16;;;;;;;;;;;;;;;3.80;82.73;95228.03;5117397;28;964;-61
2023/12/08 03:44:42;;;;;;;;;;;;;;;3.76;82.61;95221.28;5117462;28;1990;-62
2023/12/08 03:47:08;;;;;;;;;;;;;;;3.66;83.39;95222.00;5116086;28;1017;-61
2023/12/08 03:49:34;;;;;;;;;;;;;;;3.66;83.21;95226.41;5117416;28;1055;-62
2023/12/08 03:52:00;;;;;;;;;;;;;;;3.54;83.91;95225.56;5117268;28;1020;-62
2023/12/08 03:54:26;;;;;;;;;;;;;;;3.52;84.87;95219.56;5117085;28;1295;-62
2023/12/08 03:56:52;;;;;;;;;;;;;;;3.54;84.42;95224.72;5117434;28;1059;-61
2023/12/08 03:59:18;;;;;;;;;;;;;;;3.65;83.86;95224.75;5116982;28;981;-62
2023/12/08 04:01:44;;;;;;;;;;;;;;;3.66;83.68;95218.50;5117318;28;1059;-62
2023/12/08 04:04:11;;;;;;;;;;;;;;;3.71;84.20;95219.81;5116991;28;1914;-62
2023/12/08 04:06:37;;;;;;;;;;;;;;;3.73;84.03;95217.06;5117335;28;1043;-63
2023/12/08 04:09:03;;;;;;;;;;;;;;;3.65;84.59;95222.94;5117031;28;1058;-65
2023/12/08 04:11:28;;;;;;;;;;;;;;;3.60;83.42;95222.44;5116909;27;1092;-63
2023/12/08 04:13:54;;;;;;;;;;;;;;;3.63;84.37;95224.88;5117077;28;1112;-62
2023/12/08 04:16:20;;;;;;;;;;;;;;;3.67;83.55;95221.03;5117036;28;951;-62
2023/12/08 04:18:46;;;;;;;;;;;;;;;3.80;82.70;95226.22;5117073;28;1046;-60
2023/12/08 04:21:16;;;;;;;;;;;;;;;3.69;83.31;95220.91;5116830;28;944;-62
2023/12/08 04:23:42;;;;;;;;;;;;;;;3.67;83.25;95228.13;5116931;27;1990;-62
2023/12/08 04:26:08;;;;;;;;;;;;;;;3.63;84.37;95229.31;5116733;28;1047;-63
2023/12/08 04:28:34;;;;;;;;;;;;;;;3.60;84.71;95232.19;5116655;28;981;-63
2023/12/08 04:31:00;;;;;;;;;;;;;;;3.66;84.36;95222.00;5115638;28;1055;-62
2023/12/08 04:33:26;;;;;;;;;;;;;;;3.70;83.92;95227.91;5115656;28;1040;-62
2023/12/08 04:35:52;;;;;;;;;;;;;;;3.74;83.37;95225.84;5116707;28;973;-63
2023/12/08 04:38:17;;;;;;;;;;;;;;;3.78;83.40;95224.66;5116590;28;945;-62
2023/12/08 04:40:43;;;;;;;;;;;;;;;3.69;83.23;95234.97;5116642;28;1038;-62
2023/12/08 04:43:09;;;;;;;;;;;;;;;3.77;83.57;95242.31;5116496;28;988;-62
2023/12/08 04:45:36;;;;;;;;;;;;;;;3.63;83.76;95238.09;5116418;28;1906;-61
2023/12/08 04:48:02;;;;;;;;;;;;;;;3.52;83.63;95230.97;5116421;28;972;-61
2023/12/08 04:50:28;;;;;;;;;;;;;;;3.52;84.59;95227.47;5116214;28;985;-60
2023/12/08 04:52:54;;;;;;;;;;;;;;;3.61;83.83;95236.53;5116146;28;980;-61
2023/12/08 04:55:20;;;;;;;;;;;;;;;3.52;84.10;95230.13;5116045;27;1279;-60
2023/12/08 04:57:46;;;;;;;;;;;;;;;3.48;83.23;95231.31;5115933;28;1063;-60
2023/12/08 05:00:12;;;;;;;;;;;;;;;3.38;84.56;95232.94;5116129;28;1099;-59
2023/12/08 05:02:38;;;;;;;;;;;;;;;3.46;84.34;95222.66;5116320;28;984;-59
2023/12/08 05:05:04;;;;;;;;;;;;;;;3.50;84.16;95232.03;5115724;28;1910;-59
2023/12/08 05:07:30;;;;;;;;;;;;;;;3.49;83.36;95233.84;5115960;28;1060;-60
2023/12/08 05:09:56;;;;;;;;;;;;;;;3.56;83.08;95238.66;5115972;28;969;-60
2023/12/08 05:12:22;;;;;;;;;;;;;;;3.52;84.50;95241.53;5115863;28;1043;-60
2023/12/08 05:14:48;;;;;;;;;;;;;;;3.49;83.98;95239.13;5115986;28;976;-61
2023/12/08 05:17:15;;;;;;;;;;;;;;;3.52;84.37;95240.69;5148680;27;1027;-60
2023/12/08 05:19:41;;;;;;;;;;;;;;;3.66;82.52;95243.16;5115993;28;1047;-59
2023/12/08 05:22:06;;;;;;;;;;;;;;;3.68;82.98;95243.00;5115742;28;980;-61
2023/12/08 05:24:32;;;;;;;;;;;;;;;3.69;81.94;95242.06;5115261;28;1992;-60
2023/12/08 05:26:58;;;;;;;;;;;;;;;3.74;82.29;95236.41;5115445;28;1036;-60
2023/12/08 05:29:24;;;;;;;;;;;;;;;3.61;81.88;95240.00;5114142;28;1056;-61
2023/12/08 05:31:50;;;;;;;;;;;;;;;3.54;82.10;95230.84;5115336;28;1048;-60
2023/12/08 05:34:16;;;;;;;;;;;;;;;3.59;80.24;95241.94;5115564;28;1103;-60
2023/12/08 05:36:42;;;;;;;;;;;;;;;3.56;80.71;95236.84;5115532;28;973;-60
2023/12/08 05:39:08;;;;;;;;;;;;;;;3.51;81.13;95241.69;5115535;28;1031;-60
2023/12/08 05:41:35;;;;;;;;;;;;;;;3.50;81.05;95243.44;5115113;28;1035;-60
2023/12/08 05:44:02;;;;;;;;;;;;;;;3.36;82.98;95248.09;5113942;27;1979;-60
2023/12/08 05:46:28;;;;;;;;;;;;;;;3.44;82.07;95245.72;5115163;28;1047;-61
2023/12/08 05:48:54;;;;;;;;;;;;;;;3.48;83.41;95252.47;5115320;28;1060;-60
2023/12/08 05:51:20;;;;;;;;;;;;;;;3.50;83.07;95246.09;5115219;28;996;-60
2023/12/08 05:53:46;;;;;;;;;;;;;;;3.57;83.18;95248.31;5115176;28;1453;-58
2023/12/08 05:56:12;;;;;;;;;;;;;;;3.55;84.13;95250.19;5114751;28;1004;-58
2023/12/08 05:58:37;;;;;;;;;;;;;;;3.67;83.58;95254.56;5113599;28;969;-58
2023/12/08 06:01:04;;;;;;;;;;;;;;;3.56;84.35;95250.06;5114970;28;971;-58
2023/12/08 06:03:30;;;;;;;;;;;;;;;3.56;84.60;95246.59;5114511;28;1203;-59
2023/12/08 06:05:56;;;;;;;;;;;;;;;3.59;84.48;95251.66;5113760;28;1976;-59
2023/12/08 06:08:22;;;;;;;;;;;;;;;3.66;83.95;95256.38;5113626;28;1056;-59
2023/12/08 06:10:48;;;;;;;;;;;;;;;3.63;83.32;95261.03;5114434;28;968;-59
2023/12/08 06:13:14;;;;;;;;;;;;;;;3.61;83.83;95262.97;5114348;28;1087;-58
2023/12/08 06:15:40;;;;;;;;;;;;;;;3.66;82.33;95253.72;5113570;28;1024;-58
2023/12/08 06:18:05;;;;;;;;;;;;;;;3.63;83.33;95259.25;5114849;28;1061;-59
2023/12/08 06:20:32;;;;;;;;;;;;;;;3.62;83.25;95251.41;5114523;28;1059;-58
2023/12/08 06:22:58;;;;;;;;;;;;;;;3.64;82.36;95252.13;5114471;28;1002;-58
2023/12/08 06:25:24;;;;;;;;;;;;;;;3.69;82.54;95257.94;5114223;28;1991;-58
2023/12/08 06:27:49;;;;;;;;;;;;;;;3.78;82.44;95261.69;5114190;28;1083;-58
2023/12/08 06:30:15;;;;;;;;;;;;;;;3.82;81.98;95260.50;5114298;28;976;-58
2023/12/08 06:32:41;;;;;;;;;;;;;;;3.76;83.15;95263.59;5113329;28;976;-58
2023/12/08 06:35:07;;;;;;;;;;;;;;;3.79;82.81;95266.00;5113299;28;972;-58
2023/12/08 06:37:35;;;;;;;;;;;;;;;3.81;83.03;95267.56;5114402;28;1047;-58
2023/12/08 06:40:00;;;;;;;;;;;;;;;3.81;81.81;95269.38;5114205;28;1066;-58
2023/12/08 06:42:26;;;;;;;;;;;;;;;3.75;82.84;95270.69;5112766;28;977;-58
2023/12/08 06:44:52;;;;;;;;;;;;;;;3.81;83.45;95266.72;5114136;28;1910;-59
2023/12/08 06:47:18;;;;;;;;;;;;;;;3.88;83.09;95276.72;5114225;28;1052;-58
2023/12/08 06:49:44;;;;;;;;;;;;;;;3.83;84.33;95275.38;5114066;28;1007;-59
2023/12/08 06:52:10;;;;;;;;;;;;;;;4.00;83.09;95284.69;5113966;28;1024;-58
2023/12/08 06:54:36;;;;;;;;;;;;;;;3.95;84.12;95279.75;5113765;28;1236;-59
2023/12/08 06:57:02;;;;;;;;;;;;;;;3.97;83.58;95285.78;5113536;28;996;-59
2023/12/08 06:59:28;;;;;;;;;;;;;;;4.02;84.37;95280.97;5112763;28;1007;-59
2023/12/08 07:01:54;;;;;;;;;;;;;;;3.97;84.15;95282.28;5113784;28;1028;-58
2023/12/08 07:07:52;;;;;;;;;;;;;;;3.96;83.74;95286.72;5073169;28;1174;-58
2023/12/08 07:10:18;;;;;;;;;;;;;;;3.98;83.15;95287.44;5073217;28;1052;-59
2023/12/08 07:12:44;;;;;;;;;;;;;;;4.06;82.01;95292.13;5072111;28;1044;-58
2023/12/08 07:15:10;;;;;;;;;;;;;;;4.00;82.53;95298.75;5073435;28;977;-59
2023/12/08 07:17:37;;;;;;;;;;;;;;;4.05;82.72;95288.66;5073240;28;1032;-59
2023/12/08 07:20:06;;;;;;;;;;;;;;;3.98;83.58;95291.91;5073089;28;1034;-58
2023/12/08 07:22:32;;;;;;;;;;;;;;;3.96;81.83;95291.16;5073087;28;1020;-59
2023/12/08 07:24:59;;;;;;;;;;;;;;;4.06;81.25;95294.78;5073206;28;2004;-59
2023/12/08 07:27:25;;;;;;;;;;;;;;;4.04;81.57;95291.41;5073033;28;953;-58
2023/12/08 07:29:50;;;;;;;;;;;;;;;4.06;81.65;95292.13;5072966;28;1083;-58
2023/12/08 07:32:16;;;;;;;;;;;;;;;3.98;82.63;95294.53;5072883;28;948;-58
2023/12/08 07:34:42;;;;;;;;;;;;;;;3.94;82.16;95290.44;5073197;28;996;-58
2023/12/08 07:37:08;;;;;;;;;;;;;;;4.01;81.78;95289.84;5073180;28;1047;-59
2023/12/08 07:39:34;;;;;;;;;;;;;;;4.02;81.46;95288.91;5072734;28;1087;-58
2023/12/08 07:42:00;;;;;;;;;;;;;;;4.09;81.51;95287.44;5073026;28;1023;-59
2023/12/08 07:44:27;;;;;;;;;;;;;;;4.06;81.52;95290.34;5072964;28;2056;-58
2023/12/08 07:46:52;;;;;;;;;;;;;;;4.06;82.55;95289.50;5072463;28;1292;-59
2023/12/08 07:49:19;;;;;;;;;;;;;;;4.14;81.29;95294.22;5072572;28;1350;-58
2023/12/08 07:51:45;;;;;;;;;;;;;;;4.15;80.97;95286.13;5072626;28;1200;-59
2023/12/08 07:54:12;;;;;;;;;;;;;;;4.18;81.28;95285.06;5072181;28;1277;-58
2023/12/08 07:56:38;;;;;;;;;;;;;;;4.16;81.21;95282.53;5072510;28;1229;-58
2023/12/08 07:59:04;;;;;;;;;;;;;;;4.15;80.13;95275.56;5072239;28;1289;-58
2023/12/08 08:01:31;;;;;;;;;;;;;;;4.19;80.79;95281.44;5072439;28;1307;-59
2023/12/08 08:03:57;;;;;;;;;;;;;;;4.33;79.42;95291.81;5072344;28;1910;-58
2023/12/08 08:06:24;;;;;;;;;;;;;;;4.23;80.46;95280.25;5088960;28;1269;-59
2023/12/08 08:08:50;;;;;;;;;;;;;;;4.17;79.69;95284.22;5113398;28;1181;-58
2023/12/08 08:11:16;;;;;;;;;;;;;;;4.19;80.18;95286.75;5116412;28;1105;-58
2023/12/08 08:13:42;;;;;;;;;;;;;;;4.25;79.56;95284.47;5116769;28;1208;-58
2023/12/08 08:16:08;;;;;;;;;;;;;;;4.34;79.66;95276.78;5116406;28;1228;-59
2023/12/08 08:18:34;;;;;;;;;;;;;;;4.40;79.27;95284.22;5116395;28;1280;-58
2023/12/08 08:21:00;;;;;;;;;;;;;;;4.36;79.76;95280.16;5116315;28;1290;-59
2023/12/08 08:23:26;;;;;;;;;;;;;;;4.47;77.90;95283.63;5116325;28;1121;-58
2023/12/08 08:25:52;;;;;;;;;;;;;;;4.47;78.40;95283.63;5116486;28;2016;-58
2023/12/08 08:28:19;;;;;;;;;;;;;;;4.42;78.03;95274.38;5114918;28;1303;-58
2023/12/08 08:30:45;;;;;;;;;;;;;;;4.46;79.12;95274.00;5116067;28;1267;-59
2023/12/08 08:33:14;;;;;;;;;;;;;;;4.42;76.34;95271.72;5113585;28;1283;-59
2023/12/08 08:35:40;;;;;;;;;;;;;;;4.29;74.91;95271.84;5116159;28;1283;-58
2023/12/08 08:38:06;;;;;;;;;;;;;;;4.34;76.64;95268.84;5116163;28;1325;-59
2023/12/08 08:40:32;;;;;;;;;;;;;;;4.44;76.03;95272.44;5116138;28;1330;-58
2023/12/08 08:42:58;;;;;;;;;;;;;;;4.50;75.56;95264.88;5116252;28;1240;-58
2023/12/08 08:45:24;;;;;;;;;;;;;;;4.49;75.58;95272.94;5115920;28;1909;-58
2023/12/08 08:47:50;;;;;;;;;;;;;;;4.43;75.92;95268.94;5115673;28;1346;-59
2023/12/08 08:50:16;;;;;;;;;;;;;;;4.49;75.65;95273.75;5115646;28;1288;-58
2023/12/08 08:52:42;;;;;;;;;;;;;;;4.52;76.09;95275.34;5115949;28;1365;-58
2023/12/08 08:55:10;;;;;;;;;;;;;;;4.73;74.53;95271.97;5115779;28;1251;-58
2023/12/08 08:57:36;;;;;;;;;;;;;;;4.64;74.16;95274.34;5115887;28;1279;-59
2023/12/08 09:00:04;;;;;;;;;;;;;;;4.44;74.94;95272.44;5116257;28;973;-58
2023/12/08 09:02:30;;;;;;;;;;;;;;;4.42;75.56;95266.41;5115785;28;977;-59
2023/12/08 09:04:56;;;;;;;;;;;;;;;4.43;74.97;95271.59;5115304;28;1902;-61
2023/12/08 09:07:22;;;;;;;;;;;;;;;4.41;75.95;95265.59;5115667;28;1068;-59
2023/12/08 09:09:48;;;;;;;;;;;;;;;4.42;76.25;95266.41;5115721;28;1031;-61
2023/12/08 09:12:14;;;;;;;;;;;;;;;4.38;75.39;95257.91;5115726;28;1028;-62
2023/12/08 09:14:40;;;;;;;;;;;;;;;4.32;76.56;95261.00;5114500;28;1055;-61
2023/12/08 09:17:06;;;;;;;;;;;;;;;4.45;75.20;95253.78;5115926;28;1059;-60
2023/12/08 09:19:32;;;;;;;;;;;;;;;4.40;75.86;95245.38;5115433;28;1145;-61
2023/12/08 09:21:58;;;;;;;;;;;;;;;4.55;76.00;95248.59;5111169;28;1228;-61
2023/12/08 09:24:25;;;;;;;;;;;;;;;4.65;74.72;95238.13;5114992;28;1983;-61
2023/12/08 09:26:54;;;;;;;;;;;;;;;4.56;74.48;95236.22;5115155;28;1294;-61
2023/12/08 09:29:21;;;;;;;;;;;;;;;4.57;73.75;95232.59;5112847;28;1236;-61
2023/12/08 09:31:47;;;;;;;;;;;;;;;4.57;74.74;95240.53;5114901;28;1224;-61
2023/12/08 09:34:13;;;;;;;;;;;;;;;4.64;74.61;95234.63;5115099;28;1271;-60
2023/12/08 09:36:39;;;;;;;;;;;;;;;4.59;74.93;95230.66;5112276;28;1291;-61
2023/12/08 09:39:05;;;;;;;;;;;;;;;4.57;75.87;95230.81;5114976;28;1240;-62
2023/12/08 09:41:31;;;;;;;;;;;;;;;4.52;75.81;95234.78;5114618;28;1295;-60
2023/12/08 09:44:02;;;;;;;;;;;;;;;4.64;75.77;95217.91;5114568;28;1984;-62
2023/12/08 09:46:30;;;;;;;;;;;;;;;4.76;73.06;95209.00;5114875;28;1295;-61
2023/12/08 09:48:58;;;;;;;;;;;;;;;4.77;74.41;95207.16;5114199;28;1343;-61
2023/12/08 09:51:25;;;;;;;;;;;;;;;4.75;74.40;95204.63;5114753;28;1221;-61
2023/12/08 09:53:51;;;;;;;;;;;;;;;4.72;74.96;95207.53;5114429;28;1299;-61
2023/12/08 09:56:18;;;;;;;;;;;;;;;4.91;73.90;95203.38;5114466;28;1271;-60
2023/12/08 09:58:45;;;;;;;;;;;;;;;5.00;72.02;95198.16;5114260;28;1216;-61
2023/12/08 10:01:16;;;;;;;;;;;;;;;4.95;71.79;95197.72;5114467;28;1359;-62
2023/12/08 10:03:43;;;;;;;;;;;;;;;4.99;73.53;95193.00;5114731;28;1232;-61
2023/12/08 10:06:10;;;;;;;;;;;;;;;4.88;72.96;95193.88;5114051;28;1993;-62
2023/12/08 10:08:36;;;;;;;;;;;;;;;4.98;72.95;95193.97;5112038;28;1299;-60
2023/12/08 10:11:05;;;;;;;;;;;;;;;5.15;72.24;95182.81;5114199;28;1291;-61
2023/12/08 10:13:32;;;;;;;;;;;;;;;5.18;72.60;95190.53;5113939;28;1228;-61
2023/12/08 10:15:59;;;;;;;;;;;;;;;5.12;72.38;95180.41;5112869;28;1252;-61
2023/12/08 10:18:25;;;;;;;;;;;;;;;5.22;73.50;95188.47;5114122;28;1412;-61
2023/12/08 10:20:52;;;;;;;;;;;;;;;5.30;72.76;95183.38;5113941;28;1275;-61
2023/12/08 10:23:20;;;;;;;;;;;;;;;5.28;70.98;95174.69;5113991;28;1133;-61
2023/12/08 10:25:47;;;;;;;;;;;;;;;5.29;70.75;95176.38;5113782;28;1938;-61
2023/12/08 10:28:13;;;;;;;;;;;;;;;5.21;71.09;95174.34;5113943;28;1264;-62
2023/12/08 10:30:43;;;;;;;;;;;;;;;5.23;70.00;95172.41;5113578;28;1236;-61
2023/12/08 10:33:17;;;;;;;;;;;;;;;5.21;67.98;95163.75;5114197;28;1221;-58
2023/12/08 10:35:43;;;;;;;;;;;;;;;5.03;68.06;95166.13;5112589;28;1224;-61
2023/12/08 10:38:09;;;;;;;;;;;;;;;5.09;69.68;95162.97;5114015;28;1240;-61
2023/12/08 10:40:35;;;;;;;;;;;;;;;5.18;69.12;95155.22;5110958;28;1221;-61
2023/12/08 10:43:01;;;;;;;;;;;;;;;5.13;68.68;95158.25;5113886;28;1245;-61
2023/12/08 10:45:28;;;;;;;;;;;;;;;5.13;69.13;95160.06;5113744;28;2012;-62
2023/12/08 10:47:54;;;;;;;;;;;;;;;5.28;68.16;95164.94;5113694;28;1331;-62
2023/12/08 10:50:21;;;;;;;;;;;;;;;5.23;67.51;95161.81;5113432;28;1314;-61
2023/12/08 10:52:47;;;;;;;;;;;;;;;5.16;70.72;95154.50;5113679;28;1291;-61
2023/12/08 10:55:13;;;;;;;;;;;;;;;5.21;70.22;95154.97;5112045;28;1228;-61
2023/12/08 10:57:40;;;;;;;;;;;;;;;5.15;70.21;95152.84;5113634;28;1208;-61
2023/12/08 11:00:17;;;;;;;;;;;;;;;5.21;68.47;95153.16;5113752;28;1299;-62
2023/12/08 11:02:45;;;;;;;;;;;;;;;5.24;68.02;95154.72;5112176;28;2559;-62
2023/12/08 11:05:15;;;;;;;;;;;;;;;5.10;69.82;95147.91;5113202;28;1902;-61
2023/12/08 11:07:42;;;;;;;;;;;;;;;5.13;67.98;95150.31;5113580;28;1209;-61
2023/12/08 11:10:11;;;;;;;;;;;;;;;5.09;67.85;95148.88;5113982;28;1047;-61
2023/12/08 11:12:45;;;;;;;;;;;;;;;4.85;69.02;95152.56;5113959;28;961;-61
2023/12/08 11:15:16;;;;;;;;;;;;;;;4.85;68.70;95149.94;5113951;28;969;-61
2023/12/08 11:17:50;;;;;;;;;;;;;;;4.91;70.78;95150.41;5113790;28;1171;-62
2023/12/08 11:20:17;;;;;;;;;;;;;;;4.91;71.06;95148.59;5113488;28;1083;-61
2023/12/08 11:22:45;;;;;;;;;;;;;;;4.92;69.08;95137.03;5113889;28;1034;-61
2023/12/08 11:25:16;;;;;;;;;;;;;;;4.93;70.68;95143.16;5113408;28;1992;-61
2023/12/08 11:28:15;;;;;;;;;;;;;;;5.02;69.35;95140.59;5113842;28;944;-61
2023/12/08 11:30:51;;;;;;;;;;;;;;;5.07;69.70;95135.75;5090070;28;1291;-62
2023/12/08 11:33:34;;;;;;;;;;;;;;;5.01;71.32;95140.75;5113713;28;988;-61
2023/12/08 11:36:07;;;;;;;;;;;;;;;4.91;70.71;95145.09;5113549;28;1109;-62
2023/12/08 11:38:33;;;;;;;;;;;;;;;4.94;71.93;95136.91;5113711;28;1030;-61
2023/12/08 11:40:59;;;;;;;;;;;;;;;4.99;70.26;95135.56;5113698;28;1059;-61
2023/12/08 11:43:26;;;;;;;;;;;;;;;4.93;70.68;95136.03;5117622;28;1197;-58
2023/12/08 11:45:52;;;;;;;;;;;;;;;4.93;69.53;95137.88;5117572;28;1992;-61
2023/12/08 11:48:19;;;;;;;;;;;;;;;4.92;69.78;95137.03;5117574;28;979;-61
2023/12/08 11:50:46;;;;;;;;;;;;;;;4.86;70.25;95132.25;5117597;28;956;-61
2023/12/08 11:53:12;;;;;;;;;;;;;;;4.92;70.69;95133.53;5117314;28;1008;-61
2023/12/08 11:55:39;;;;;;;;;;;;;;;5.02;70.12;95124.69;5117170;28;1299;-61
2023/12/08 11:58:06;;;;;;;;;;;;;;;5.06;70.31;95133.22;5115927;28;1049;-61
2023/12/08 12:00:33;;;;;;;;;;;;;;;4.98;70.45;95131.22;5117580;28;1079;-61
2023/12/08 12:03:00;;;;;;;;;;;;;;;4.92;70.45;95134.38;5117450;28;1039;-61
2023/12/08 12:05:26;;;;;;;;;;;;;;;4.84;70.96;95135.00;5117124;28;1913;-62
2023/12/08 12:07:53;;;;;;;;;;;;;;;4.92;69.71;95137.03;5117385;28;971;-61
2023/12/08 12:10:29;;;;;;;;;;;;;;;4.92;69.57;95136.19;5116906;28;1040;-62
2023/12/08 12:12:56;;;;;;;;;;;;;;;4.93;70.13;95136.03;5117280;28;1028;-61
2023/12/08 12:15:24;;;;;;;;;;;;;;;4.79;69.84;95136.34;5116992;28;969;-61
2023/12/08 12:17:51;;;;;;;;;;;;;;;4.63;70.06;95140.25;5116847;28;1080;-61
2023/12/08 12:20:17;;;;;;;;;;;;;;;4.63;71.41;95132.31;5116883;28;1028;-61
2023/12/08 12:22:43;;;;;;;;;;;;;;;4.75;71.96;95143.72;5115627;28;1007;-62
2023/12/08 12:25:10;;;;;;;;;;;;;;;4.66;71.92;95150.59;5116619;28;1992;-61
2023/12/08 12:27:43;;;;;;;;;;;;;;;4.63;71.85;95156.16;5116718;28;1084;-61
2023/12/08 12:30:09;;;;;;;;;;;;;;;4.65;71.41;95151.56;5116834;28;964;-62
2023/12/08 12:32:36;;;;;;;;;;;;;;;4.64;71.34;95149.03;5116508;28;1083;-62
2023/12/08 12:35:02;;;;;;;;;;;;;;;4.69;71.09;95146.88;5116623;28;976;-61
2023/12/08 12:37:28;;;;;;;;;;;;;;;4.68;70.85;95158.41;5116510;28;1031;-63
2023/12/08 12:39:55;;;;;;;;;;;;;;;4.72;70.96;95156.38;5116577;28;989;-63
2023/12/08 12:42:21;;;;;;;;;;;;;;;4.61;70.95;95144.00;5116593;28;1054;-62
2023/12/08 12:44:47;;;;;;;;;;;;;;;4.63;70.24;95147.34;5116238;28;2038;-60
2023/12/08 12:47:20;;;;;;;;;;;;;;;4.51;71.92;95143.91;5116523;28;965;-60
2023/12/08 12:50:05;;;;;;;;;;;;;;;4.65;72.18;95148.94;5116595;28;1007;-61
2023/12/08 12:52:36;;;;;;;;;;;;;;;4.59;71.57;95138.84;5115944;28;1023;-60
2023/12/08 12:55:20;;;;;;;;;;;;;;;4.75;71.67;95141.06;5114816;28;1280;-60
2023/12/08 12:57:48;;;;;;;;;;;;;;;4.56;72.86;95141.72;5116365;28;1060;-61
2023/12/08 13:00:15;;;;;;;;;;;;;;;4.69;71.90;95138.94;5114865;28;993;-61
2023/12/08 13:02:44;;;;;;;;;;;;;;;4.85;72.11;95139.31;5115970;27;976;-58
2023/12/08 13:05:10;;;;;;;;;;;;;;;4.72;71.77;95138.66;5116151;28;1905;-60
2023/12/08 13:07:37;;;;;;;;;;;;;;;4.81;70.92;95139.72;5114518;28;1127;-60
2023/12/08 13:10:06;;;;;;;;;;;;;;;4.79;71.49;95146.97;5116011;28;1055;-60